Flight Track Log - Related Links

Times and Time Zones

All times are in EDT time to prevent confusion due to time zone crossing. See the N600TR flight status page for this flight to view local times or setup timezone preferences in your user account.

Time Position Orientation Groundspeed Altitude Reporting Facility
EDT Latitude Longitude Course Direction KTS MPH feet Rate Location/Type
Sun 06:07:21 PM 34.9681 -82.3533 261° West 270 311 6,400  Level Atlanta Center
Sun 06:08:00 PM 34.8055 -82.6476 251° West  Level FlightAware Approximate
Sun 06:08:21 PM 34.9589 -82.4422 263° West 282 325 9,200  Level Atlanta Center
Sun 06:09:00 PM 34.7889 -82.7337 259° West  Level FlightAware Approximate
Sun 06:09:21 PM 34.9183 -82.5467 245° Southwest 287 330 10,500  Level Atlanta Center
Sun 06:10:00 PM 34.7744 -82.8205 259° West  Level FlightAware Approximate
Sun 06:10:21 PM 34.8758 -82.6489 243° Southwest 324 373 12,900  Level Atlanta Center
Sun 06:11:00 PM 34.7616 -82.9076 261° West  Level FlightAware Approximate
Sun 06:11:21 PM 34.8269 -82.7558 241° Southwest 345 397 15,000  Level Atlanta Center
Sun 06:12:00 PM 34.7506 -82.9951 261° West  Level FlightAware Approximate
Sun 06:12:21 PM 34.7842 -82.8628 244° Southwest 350 403 16,700  Level Atlanta Center
Sun 06:13:21 PM 34.7394 -83.0050 249° West 399 459 17,600 700 Climbing Atlanta Center
Sun 06:14:21 PM 34.7031 -83.1469 253° West 433 498 18,100 200 Climbing Atlanta Center
Sun 06:15:21 PM 34.6581 -83.2736 247° West 452 520 18,000 -50 Descending Atlanta Center
Sun 06:16:21 PM 34.5708 -83.3778 225° Southwest 445 512 18,000  Level Atlanta Center
Sun 06:17:21 PM 34.4900 -83.4767 225° Southwest 431 496 18,000 -50 Level Atlanta Center
Sun 06:18:21 PM 34.4028 -83.5681 221° Southwest 419 482 17,900 -650 Descending Atlanta Center
Sun 06:19:21 PM 34.3111 -83.6464 215° Southwest 414 476 16,700 -1,350 Descending Atlanta Center
Sun 06:20:21 PM 34.2217 -83.7297 218° Southwest 406 467 15,200 -1,350 Descending Atlanta Center
Sun 06:21:21 PM 34.1258 -83.8131 216° Southwest 406 467 14,000 -600 Descending Atlanta Center
Sun 06:22:21 PM 34.0531 -83.9083 227° Southwest 387 445 14,000  Level Atlanta Center
Sun 06:23:21 PM 33.9925 -83.9986 231° Southwest 365 420 14,000  Level Atlanta Center
Sun 06:24:21 PM 33.9342 -84.0814 230° Southwest 348 400 14,000  Level Atlanta Center
Sun 06:25:21 PM 33.8736 -84.1489 223° Southwest 321 369 14,000 48 Level Atlanta Center
Sun 06:26:25 PM 33.8167 -84.2167 225° Southwest 273 314 14,100 -387 Climbing Atlanta TRACON
Sun 06:27:25 PM 33.7500 -84.2667 212° Southwest 274 315 13,200 -1,150 Descending Atlanta TRACON
Sun 06:28:25 PM 33.7167 -84.3500 244° Southwest 263 303 11,800 -1,350 Descending Atlanta TRACON
Sun 06:29:25 PM 33.7167 -84.4333 270° West 261 300 10,500 -1,300 Descending Atlanta TRACON
Sun 06:30:25 PM 33.7167 -84.5167 270° West 241 277 9,200 -1,200 Descending Atlanta TRACON
Sun 06:31:25 PM 33.7333 -84.6000 284° West 239 275 8,100 -600 Descending Atlanta TRACON
Sun 06:32:25 PM 33.7333 -84.6667 270° West 236 272 8,000 -600 Descending Atlanta TRACON
Sun 06:33:25 PM 33.7167 -84.7500 257° West 240 276 6,900 -1,250 Descending Atlanta TRACON
Sun 06:34:25 PM 33.6667 -84.7500 180° South 234 269 5,500 -1,095 Descending Atlanta TRACON
Sun 06:35:31 PM 33.6500 -84.6833 107° East 185 213 4,600 -800 Descending Atlanta TRACON
Sun 06:36:25 PM 33.6500 -84.6333 90° East 178 205 3,900 -789 Descending Atlanta TRACON
Sun 06:37:25 PM 33.6500 -84.5667 90° East 173 199 3,100 -850 Descending Atlanta TRACON
Sun 06:38:25 PM 33.6500 -84.5167 90° East 157 181 2,200 -800 Descending Atlanta TRACON
Sun 06:39:25 PM 33.6500 -84.4667 90° East 135 155 1,500 -700 Descending Atlanta TRACON

Login

Don't have an account? Register now (free) for customized features, flight alerts, and more!